createdAt,value
2023-02-20T00:00:39.351Z,5.30
2023-02-20T00:01:58.080Z,5.19
2023-02-20T00:02:59.842Z,4.39
2023-02-20T00:04:01.888Z,4.92
2023-02-20T00:05:03.995Z,4.97
2023-02-20T00:06:05.863Z,5.01
2023-02-20T00:07:07.553Z,5.08
2023-02-20T00:08:09.466Z,5.11
2023-02-20T00:09:11.732Z,4.97
2023-02-20T00:10:13.757Z,4.63
2023-02-20T00:11:15.499Z,4.53
2023-02-20T00:12:17.193Z,4.42
2023-02-20T00:13:19.020Z,4.43
2023-02-20T00:14:22.352Z,4.81
2023-02-20T00:15:24.084Z,4.84
2023-02-20T00:16:25.905Z,4.40
2023-02-20T00:17:28.459Z,4.60
2023-02-20T00:18:30.254Z,4.53
2023-02-20T00:19:32.293Z,4.81
2023-02-20T00:20:34.184Z,4.86
2023-02-20T00:21:36.014Z,4.36
2023-02-20T00:22:37.831Z,4.44
2023-02-20T00:23:39.688Z,4.94
2023-02-20T00:24:42.043Z,4.98
2023-02-20T00:25:43.805Z,5.27
2023-02-20T00:26:47.577Z,4.56
2023-02-20T00:27:49.345Z,4.93
2023-02-20T00:28:51.093Z,5.16
2023-02-20T00:29:52.790Z,4.73
2023-02-20T00:30:54.519Z,4.55
2023-02-20T00:31:58.182Z,4.81
2023-02-20T00:33:00.355Z,4.28
2023-02-20T00:34:03.927Z,4.10
2023-02-20T00:35:06.088Z,4.23
2023-02-20T00:36:22.929Z,4.59
2023-02-20T00:37:24.654Z,4.12
2023-02-20T00:38:27.033Z,4.49
2023-02-20T00:39:29.336Z,4.29
2023-02-20T00:40:31.342Z,4.67
2023-02-20T00:41:33.387Z,5.05
2023-02-20T00:42:35.379Z,4.29
2023-02-20T00:43:37.356Z,4.47
2023-02-20T00:44:39.064Z,4.52
2023-02-20T00:45:41.571Z,4.26
2023-02-20T00:46:43.499Z,4.73
2023-02-20T00:47:47.983Z,4.59
2023-02-20T00:48:50.891Z,5.21
2023-02-20T00:50:14.265Z,5.18
2023-02-20T00:51:16.102Z,5.02
2023-02-20T00:52:17.900Z,5.25
2023-02-20T00:53:19.781Z,4.84
2023-02-20T00:54:21.822Z,5.14
2023-02-20T00:55:23.646Z,5.37
2023-02-20T00:56:25.519Z,5.27
2023-02-20T00:57:27.430Z,5.26
2023-02-20T00:58:29.869Z,5.17
2023-02-20T00:59:31.655Z,5.36
2023-02-20T01:00:33.595Z,5.77
2023-02-20T01:01:36.262Z,5.01
2023-02-20T01:02:38.148Z,4.95
2023-02-20T01:03:39.952Z,5.28
2023-02-20T01:04:42.733Z,5.69
2023-02-20T01:05:44.857Z,5.05
2023-02-20T01:06:46.807Z,5.25
2023-02-20T01:07:48.520Z,5.15
2023-02-20T01:08:51.139Z,4.90
2023-02-20T01:09:55.749Z,5.25
2023-02-20T01:10:57.520Z,5.29
2023-02-20T01:11:59.273Z,4.87
2023-02-20T01:13:01.041Z,5.26
2023-02-20T01:14:03.651Z,4.81
2023-02-20T01:15:08.145Z,5.34
2023-02-20T01:16:10.312Z,5.14
2023-02-20T01:17:13.098Z,4.99
2023-02-20T01:18:14.855Z,5.81
2023-02-20T01:19:16.937Z,6.00
2023-02-20T01:20:18.878Z,5.52
2023-02-20T01:21:20.628Z,5.24
2023-02-20T01:22:24.293Z,5.64
2023-02-20T01:23:26.558Z,5.91
2023-02-20T01:24:28.649Z,5.61
2023-02-20T01:25:30.387Z,6.04
2023-02-20T01:26:32.127Z,5.69
2023-02-20T01:27:34.148Z,5.28
2023-02-20T01:28:35.817Z,5.31
2023-02-20T01:29:40.524Z,5.77
2023-02-20T01:30:42.240Z,5.62
2023-02-20T01:31:50.340Z,5.40
2023-02-20T01:32:52.292Z,5.19
2023-02-20T01:33:54.440Z,5.16
2023-02-20T01:34:56.242Z,5.07
2023-02-20T01:35:58.052Z,5.33
2023-02-20T01:37:00.572Z,4.99
2023-02-20T01:38:06.759Z,4.80
2023-02-20T01:39:08.590Z,4.96
2023-02-20T01:40:24.056Z,5.20
2023-02-20T01:41:26.056Z,5.26
2023-02-20T01:42:31.953Z,5.31
2023-02-20T01:43:33.671Z,4.96
2023-02-20T01:44:37.324Z,4.92
2023-02-20T01:45:39.704Z,4.74
2023-02-20T01:46:49.576Z,5.32
2023-02-20T01:47:55.263Z,4.66
2023-02-20T01:49:06.032Z,4.98
2023-02-20T01:50:10.604Z,5.50
2023-02-20T01:51:12.317Z,5.19
2023-02-20T01:52:21.292Z,4.86
2023-02-20T01:53:26.388Z,5.12
2023-02-20T01:54:31.000Z,4.64
2023-02-20T01:55:47.414Z,4.58
2023-02-20T01:56:51.877Z,4.57
2023-02-20T01:58:10.047Z,5.00
2023-02-20T01:59:13.661Z,4.87
2023-02-20T02:00:20.136Z,5.09
2023-02-20T02:01:21.883Z,5.25
2023-02-20T02:02:28.399Z,5.20
2023-02-20T02:03:36.185Z,5.41
2023-02-20T02:04:41.714Z,5.59
2023-02-20T02:05:51.942Z,4.99
2023-02-20T02:06:55.191Z,5.33
2023-02-20T02:08:00.485Z,5.17
2023-02-20T02:09:16.157Z,5.02
2023-02-20T02:10:31.106Z,5.28
2023-02-20T02:11:33.479Z,5.84
2023-02-20T02:12:36.735Z,5.44
2023-02-20T02:13:40.055Z,5.42
2023-02-20T02:14:41.950Z,5.97
2023-02-20T02:15:43.744Z,6.14
2023-02-20T02:16:45.562Z,5.90
2023-02-20T02:18:14.219Z,5.47
2023-02-20T02:19:25.051Z,5.83
2023-02-20T02:21:16.150Z,5.80
2023-02-20T02:23:05.989Z,5.67
2023-02-20T02:24:25.970Z,5.91
2023-02-20T02:25:56.447Z,5.95
2023-02-20T02:27:34.905Z,5.97
2023-02-20T02:29:05.195Z,6.11
2023-02-20T02:30:43.455Z,6.08
2023-02-20T02:32:06.426Z,6.06
2023-02-20T02:33:43.654Z,5.47
2023-02-20T02:35:22.888Z,5.49
2023-02-20T02:36:39.039Z,5.77
2023-02-20T02:38:00.142Z,5.74
2023-02-20T02:39:25.198Z,5.47
2023-02-20T02:40:44.418Z,5.86
2023-02-20T02:42:06.661Z,6.26
2023-02-20T02:43:32.126Z,6.14
2023-02-20T02:44:56.296Z,5.17
2023-02-20T02:46:09.432Z,5.99
2023-02-20T02:47:35.413Z,5.88
2023-02-20T02:48:43.523Z,5.09
2023-02-20T02:50:08.730Z,5.55
2023-02-20T02:51:19.381Z,5.42
2023-02-20T02:52:41.373Z,5.04
2023-02-20T02:54:15.600Z,5.16
2023-02-20T02:55:29.804Z,5.28
2023-02-20T02:56:37.411Z,5.11
2023-02-20T02:57:39.495Z,5.01
2023-02-20T02:58:41.262Z,4.75
2023-02-20T02:59:46.191Z,5.22
2023-02-20T03:01:01.372Z,5.07
2023-02-20T03:02:09.643Z,5.05
2023-02-20T03:03:32.789Z,4.87
2023-02-20T03:04:38.251Z,4.90
2023-02-20T03:06:03.926Z,4.97
2023-02-20T03:07:13.374Z,4.89
2023-02-20T03:08:33.297Z,4.73
2023-02-20T03:09:43.250Z,4.45
2023-02-20T03:10:45.296Z,4.43
2023-02-20T03:11:49.081Z,4.46
2023-02-20T03:13:04.309Z,4.79
2023-02-20T03:14:29.869Z,4.33
2023-02-20T03:15:47.093Z,4.28
2023-02-20T03:17:07.391Z,4.09
2023-02-20T03:18:29.610Z,3.99
2023-02-20T03:19:44.741Z,4.41
2023-02-20T03:20:55.716Z,4.56
2023-02-20T03:22:01.208Z,4.02
2023-02-20T03:23:08.240Z,4.18
2023-02-20T03:24:14.491Z,3.90
2023-02-20T03:25:30.174Z,4.17
2023-02-20T03:26:38.072Z,4.29
2023-02-20T03:27:56.480Z,4.18
2023-02-20T03:29:06.451Z,4.39
2023-02-20T03:30:22.291Z,4.08
2023-02-20T03:32:12.294Z,4.03
2023-02-20T03:33:59.284Z,4.21
2023-02-20T03:35:24.694Z,3.91
2023-02-20T03:37:27.189Z,4.01
2023-02-20T03:38:53.801Z,4.29
2023-02-20T03:40:20.991Z,4.12
2023-02-20T03:41:46.209Z,3.85
2023-02-20T03:43:14.310Z,3.87
2023-02-20T03:44:19.381Z,3.94
2023-02-20T03:45:25.697Z,3.96
2023-02-20T03:46:33.623Z,4.00
2023-02-20T03:47:42.860Z,3.93
2023-02-20T03:49:28.243Z,3.86
2023-02-20T03:50:49.846Z,4.41
2023-02-20T03:51:53.094Z,4.18
2023-02-20T03:53:06.329Z,4.03
2023-02-20T03:54:10.514Z,4.19
2023-02-20T03:55:12.472Z,4.09
2023-02-20T03:56:23.113Z,4.62
2023-02-20T03:57:34.755Z,4.46
2023-02-20T03:58:43.628Z,4.31
2023-02-20T03:59:54.126Z,6.34
2023-02-20T04:01:02.999Z,8.53
2023-02-20T04:02:20.955Z,4.94
2023-02-20T04:03:30.936Z,7.63
2023-02-20T04:04:46.461Z,4.86
2023-02-20T04:05:53.198Z,4.37
2023-02-20T04:07:04.279Z,5.03
2023-02-20T04:08:15.575Z,6.71
2023-02-20T04:09:24.217Z,7.76
2023-02-20T04:10:32.674Z,10.04
2023-02-20T04:12:03.684Z,13.92
2023-02-20T04:13:08.289Z,25.77
2023-02-20T04:14:15.475Z,29.19
2023-02-20T04:15:21.350Z,37.02
2023-02-20T04:16:25.772Z,20.43
2023-02-20T04:17:32.426Z,12.08
2023-02-20T04:18:36.155Z,20.00
2023-02-20T04:19:38.634Z,8.61
2023-02-20T04:20:41.872Z,10.45
2023-02-20T04:22:00.532Z,7.19
2023-02-20T04:23:14.228Z,5.62
2023-02-20T04:24:29.682Z,6.65
2023-02-20T04:25:46.927Z,6.44
2023-02-20T04:26:50.043Z,5.31
2023-02-20T04:27:52.713Z,7.05
2023-02-20T04:28:54.789Z,5.20
2023-02-20T04:29:56.860Z,5.01
2023-02-20T04:30:59.321Z,5.16
2023-02-20T04:32:01.676Z,6.47
2023-02-20T04:33:11.638Z,15.84
2023-02-20T04:34:13.667Z,7.16
2023-02-20T04:35:19.249Z,5.55
2023-02-20T04:36:26.332Z,8.22
2023-02-20T04:37:30.241Z,8.36
2023-02-20T04:38:32.809Z,5.00
2023-02-20T04:39:35.486Z,5.55
2023-02-20T04:40:38.298Z,6.20
2023-02-20T04:41:40.455Z,5.34
2023-02-20T04:42:42.447Z,3.69
2023-02-20T04:43:44.245Z,5.91
2023-02-20T04:44:46.141Z,4.60
2023-02-20T04:45:47.909Z,4.11
2023-02-20T04:46:49.738Z,4.43
2023-02-20T04:47:51.623Z,4.21
2023-02-20T04:48:53.569Z,4.87
2023-02-20T04:49:55.258Z,7.67
2023-02-20T04:50:57.597Z,8.05
2023-02-20T04:52:00.141Z,8.83
2023-02-20T04:53:02.280Z,9.56
2023-02-20T04:54:05.174Z,31.72
2023-02-20T04:55:07.292Z,49.07
2023-02-20T04:56:09.062Z,16.93
2023-02-20T04:57:12.436Z,15.44
2023-02-20T04:58:14.585Z,21.42
2023-02-20T04:59:26.147Z,9.09
2023-02-20T05:00:28.571Z,13.63
2023-02-20T05:01:30.864Z,14.52
2023-02-20T05:02:32.734Z,9.29
2023-02-20T05:03:34.442Z,13.20
2023-02-20T05:04:36.273Z,14.04
2023-02-20T05:05:38.179Z,7.36
2023-02-20T05:06:46.462Z,22.74
2023-02-20T05:07:48.844Z,16.04
2023-02-20T05:08:50.544Z,10.17
2023-02-20T05:09:52.306Z,14.44
2023-02-20T05:10:54.007Z,11.04
2023-02-20T05:11:55.756Z,12.89
2023-02-20T05:12:58.656Z,16.69
2023-02-20T05:14:00.479Z,13.84
2023-02-20T05:15:02.317Z,19.05
2023-02-20T05:16:04.605Z,15.90
2023-02-20T05:17:06.518Z,11.54
2023-02-20T05:18:08.367Z,16.84
2023-02-20T05:19:10.250Z,15.05
2023-02-20T05:20:13.499Z,11.25
2023-02-20T05:21:34.437Z,10.46
2023-02-20T05:22:36.428Z,14.66
2023-02-20T05:23:38.425Z,11.61
2023-02-20T05:24:43.598Z,8.08
2023-02-20T05:25:45.290Z,12.45
2023-02-20T05:26:47.020Z,9.90
2023-02-20T05:27:48.729Z,11.17
2023-02-20T05:28:50.398Z,9.30
2023-02-20T05:29:58.233Z,8.95
2023-02-20T05:30:59.993Z,10.75
2023-02-20T05:32:02.644Z,9.09
2023-02-20T05:33:04.729Z,10.72
2023-02-20T05:34:07.632Z,13.65
2023-02-20T05:35:09.316Z,10.45
2023-02-20T05:36:11.460Z,9.47
2023-02-20T05:37:17.038Z,8.74
2023-02-20T05:38:19.513Z,9.14
2023-02-20T05:39:21.472Z,11.81
2023-02-20T05:40:23.257Z,9.67
2023-02-20T05:41:24.999Z,8.58
2023-02-20T05:42:26.735Z,14.16
2023-02-20T05:43:28.685Z,16.79
2023-02-20T05:44:30.479Z,8.98
2023-02-20T05:45:32.383Z,12.11
2023-02-20T05:46:41.219Z,9.12
2023-02-20T05:47:43.061Z,9.32
2023-02-20T05:48:49.923Z,10.31
2023-02-20T05:49:51.676Z,7.83
2023-02-20T05:50:54.814Z,8.11
2023-02-20T05:51:58.087Z,8.57
2023-02-20T05:52:59.748Z,6.53
2023-02-20T05:54:01.617Z,6.74
2023-02-20T05:55:04.065Z,7.79
2023-02-20T05:56:06.616Z,7.68
2023-02-20T05:57:11.237Z,8.44
2023-02-20T05:58:12.944Z,11.01
2023-02-20T05:59:19.397Z,7.98
2023-02-20T06:00:21.279Z,9.53
2023-02-20T06:01:26.254Z,5.86
2023-02-20T06:02:34.108Z,6.85
2023-02-20T06:03:38.091Z,6.45
2023-02-20T06:04:40.361Z,11.80
2023-02-20T06:05:43.145Z,15.06
2023-02-20T06:06:45.642Z,11.90
2023-02-20T06:07:47.364Z,4.82
2023-02-20T06:08:49.441Z,7.30
2023-02-20T06:09:51.129Z,7.79
2023-02-20T06:10:53.031Z,5.92
2023-02-20T06:11:56.809Z,6.57
2023-02-20T06:12:59.163Z,14.79
2023-02-20T06:14:01.078Z,12.64
2023-02-20T06:15:03.597Z,11.79
2023-02-20T06:16:06.070Z,9.88
2023-02-20T06:17:08.041Z,16.89
2023-02-20T06:18:09.724Z,9.10
2023-02-20T06:19:11.915Z,15.60
2023-02-20T06:20:13.638Z,8.45
2023-02-20T06:21:15.426Z,9.21
2023-02-20T06:22:18.241Z,8.51
2023-02-20T06:23:20.038Z,6.91
2023-02-20T06:24:22.431Z,7.19
2023-02-20T06:25:24.518Z,7.48
2023-02-20T06:26:26.740Z,6.23
2023-02-20T06:27:28.726Z,8.99
2023-02-20T06:28:30.398Z,6.48
2023-02-20T06:29:32.329Z,5.93
2023-02-20T06:30:34.147Z,8.09
2023-02-20T06:31:37.259Z,8.75
2023-02-20T06:32:39.340Z,8.99
2023-02-20T06:33:40.994Z,5.99
2023-02-20T06:34:45.577Z,9.45
2023-02-20T06:35:47.296Z,7.59
2023-02-20T06:36:49.003Z,9.44
2023-02-20T06:37:50.777Z,7.87
2023-02-20T06:38:52.811Z,7.42
2023-02-20T06:39:54.497Z,7.31
2023-02-20T06:40:57.136Z,6.79
2023-02-20T06:41:59.132Z,10.09
2023-02-20T06:43:00.907Z,7.37
2023-02-20T06:44:03.595Z,6.00
2023-02-20T06:45:05.458Z,5.78
2023-02-20T06:46:07.176Z,6.08
2023-02-20T06:47:09.084Z,7.94
2023-02-20T06:48:11.237Z,9.73
2023-02-20T06:49:14.168Z,5.55
2023-02-20T06:50:16.062Z,7.16
2023-02-20T06:51:26.608Z,6.64
2023-02-20T06:52:28.752Z,5.07
2023-02-20T06:53:30.689Z,4.86
2023-02-20T06:54:34.002Z,6.95
2023-02-20T06:55:35.989Z,5.41
2023-02-20T06:56:38.283Z,5.97
2023-02-20T06:57:40.173Z,5.20
2023-02-20T06:58:42.900Z,4.63
2023-02-20T06:59:47.436Z,5.57
2023-02-20T07:00:50.489Z,4.53
2023-02-20T07:01:52.902Z,6.29
2023-02-20T07:02:54.584Z,5.73
2023-02-20T07:03:59.116Z,4.86
2023-02-20T07:05:00.772Z,5.67
2023-02-20T07:06:02.875Z,6.79
2023-02-20T07:07:05.044Z,5.66
2023-02-20T07:08:06.889Z,5.87
2023-02-20T07:09:09.604Z,5.37
2023-02-20T07:10:11.362Z,6.25
2023-02-20T07:11:14.004Z,6.02
2023-02-20T07:12:15.757Z,7.56
2023-02-20T07:13:17.400Z,5.78
2023-02-20T07:14:19.256Z,4.63
2023-02-20T07:15:21.518Z,5.28
2023-02-20T07:16:23.419Z,6.50
2023-02-20T07:17:25.498Z,7.29
2023-02-20T07:18:27.800Z,7.75
2023-02-20T07:19:29.512Z,6.74
2023-02-20T07:20:31.200Z,6.70
2023-02-20T07:21:32.955Z,7.02
2023-02-20T07:22:34.719Z,6.43
2023-02-20T07:23:36.516Z,6.57
2023-02-20T07:24:38.407Z,6.14
2023-02-20T07:25:43.294Z,5.97
2023-02-20T07:26:45.081Z,6.20
2023-02-20T07:27:46.908Z,6.52
2023-02-20T07:28:48.777Z,6.05
2023-02-20T07:29:50.958Z,5.24
2023-02-20T07:30:52.648Z,6.94
2023-02-20T07:31:54.446Z,5.89
2023-02-20T07:32:56.183Z,5.36
2023-02-20T07:33:58.743Z,5.58
2023-02-20T07:35:05.375Z,5.11
2023-02-20T07:36:11.459Z,6.80
2023-02-20T07:37:14.584Z,6.83
2023-02-20T07:38:16.476Z,5.16
2023-02-20T07:39:18.222Z,5.54
2023-02-20T07:40:20.084Z,6.13
2023-02-20T07:41:22.150Z,5.66
2023-02-20T07:42:24.303Z,5.92
2023-02-20T07:43:34.272Z,5.84
2023-02-20T07:44:36.299Z,5.88
2023-02-20T07:45:39.490Z,6.04
2023-02-20T07:46:42.033Z,5.36
2023-02-20T07:47:43.843Z,5.81
2023-02-20T07:48:45.617Z,5.64
2023-02-20T07:49:47.376Z,5.49
2023-02-20T07:50:49.182Z,5.67
2023-02-20T07:51:50.858Z,5.70
2023-02-20T07:52:52.738Z,5.55
2023-02-20T07:53:54.920Z,5.81
2023-02-20T07:54:56.703Z,5.73
2023-02-20T07:55:58.479Z,5.86
2023-02-20T07:57:01.046Z,5.46
2023-02-20T07:58:02.800Z,6.06
2023-02-20T07:59:05.133Z,6.03
2023-02-20T08:00:08.023Z,5.81
2023-02-20T08:01:16.348Z,6.36
2023-02-20T08:02:18.018Z,5.32
2023-02-20T08:03:20.452Z,5.29
2023-02-20T08:04:22.134Z,4.71
2023-02-20T08:05:23.835Z,5.64
2023-02-20T08:06:25.644Z,5.82
2023-02-20T08:07:27.307Z,5.57
2023-02-20T08:08:29.318Z,5.81
2023-02-20T08:09:31.020Z,6.38
2023-02-20T08:10:33.131Z,5.58
2023-02-20T08:11:37.361Z,5.48
2023-02-20T08:12:39.578Z,5.44
2023-02-20T08:13:43.501Z,6.03
2023-02-20T08:14:45.473Z,5.96
2023-02-20T08:15:48.156Z,5.40
2023-02-20T08:16:49.956Z,5.61
2023-02-20T08:17:52.446Z,6.02
2023-02-20T08:18:54.451Z,5.90
2023-02-20T08:19:56.153Z,6.28
2023-02-20T08:20:57.921Z,6.78
2023-02-20T08:21:59.576Z,6.17
2023-02-20T08:23:01.222Z,7.26
2023-02-20T08:24:03.003Z,7.57
2023-02-20T08:25:05.586Z,7.35
2023-02-20T08:26:07.580Z,7.30
2023-02-20T08:27:09.465Z,6.32
2023-02-20T08:28:11.953Z,6.43
2023-02-20T08:29:15.581Z,5.85
2023-02-20T08:30:25.082Z,6.74
2023-02-20T08:31:32.594Z,5.93
2023-02-20T08:32:35.050Z,5.86
2023-02-20T08:33:36.817Z,6.04
2023-02-20T08:34:38.492Z,5.76
2023-02-20T08:35:40.188Z,6.13
2023-02-20T08:36:42.137Z,6.33
2023-02-20T08:37:44.750Z,5.91
2023-02-20T08:38:46.488Z,5.83
2023-02-20T08:39:48.273Z,6.00
2023-02-20T08:40:50.044Z,5.97
2023-02-20T08:41:52.086Z,5.68
2023-02-20T08:42:53.839Z,5.92
2023-02-20T08:43:56.157Z,6.11
2023-02-20T08:44:57.888Z,6.19
2023-02-20T08:45:59.749Z,6.54
2023-02-20T08:47:01.568Z,5.58
2023-02-20T08:48:03.572Z,6.28
2023-02-20T08:49:05.511Z,6.12
2023-02-20T08:50:07.204Z,6.31
2023-02-20T08:51:09.307Z,7.06
2023-02-20T08:52:11.002Z,6.68
2023-02-20T08:53:13.993Z,6.65
2023-02-20T08:54:16.267Z,7.21
2023-02-20T08:55:18.078Z,6.11
2023-02-20T08:56:21.817Z,6.84
2023-02-20T08:57:23.847Z,6.70
2023-02-20T08:58:26.519Z,6.73
2023-02-20T08:59:31.579Z,6.99
2023-02-20T09:00:34.498Z,6.34
2023-02-20T09:01:37.173Z,6.00
2023-02-20T09:02:39.662Z,6.36
2023-02-20T09:03:43.685Z,6.13
2023-02-20T09:04:46.777Z,5.90
2023-02-20T09:05:48.862Z,6.91
2023-02-20T09:06:50.702Z,6.46
2023-02-20T09:07:52.456Z,5.72
2023-02-20T09:08:54.159Z,6.09
2023-02-20T09:09:56.008Z,5.72
2023-02-20T09:10:58.065Z,6.64
2023-02-20T09:11:59.855Z,5.84
2023-02-20T09:13:02.580Z,6.69
2023-02-20T09:14:04.556Z,6.05
2023-02-20T09:15:06.755Z,6.43
2023-02-20T09:16:08.486Z,5.87
2023-02-20T09:17:10.285Z,6.42
2023-02-20T09:18:14.371Z,6.47
2023-02-20T09:19:17.641Z,6.20
2023-02-20T09:20:21.180Z,6.00
2023-02-20T09:21:22.985Z,5.88
2023-02-20T09:22:26.293Z,6.30
2023-02-20T09:23:28.500Z,6.51
2023-02-20T09:24:34.186Z,6.74
2023-02-20T09:25:36.623Z,6.10
2023-02-20T09:26:38.386Z,6.72
2023-02-20T09:27:40.259Z,6.74
2023-02-20T09:28:42.251Z,6.46
2023-02-20T09:29:44.368Z,5.95
2023-02-20T09:30:46.173Z,5.98
2023-02-20T09:31:47.928Z,6.12
2023-02-20T09:32:50.473Z,6.09
2023-02-20T09:33:52.199Z,6.20
2023-02-20T09:34:53.960Z,6.38
2023-02-20T09:35:56.273Z,6.06
2023-02-20T09:36:57.981Z,5.73
2023-02-20T09:38:00.161Z,6.16
2023-02-20T09:39:01.988Z,6.53
2023-02-20T09:40:04.321Z,5.98
2023-02-20T09:41:23.117Z,5.98
2023-02-20T09:42:49.738Z,6.18
2023-02-20T09:44:06.530Z,6.23
2023-02-20T09:45:22.424Z,5.99
2023-02-20T09:46:25.074Z,6.39
2023-02-20T09:48:00.960Z,6.66
2023-02-20T09:49:27.068Z,6.34
2023-02-20T09:50:37.583Z,6.41
2023-02-20T09:51:50.355Z,5.86
2023-02-20T09:53:01.201Z,6.39
2023-02-20T09:54:07.635Z,6.18
2023-02-20T09:55:20.692Z,6.51
2023-02-20T09:56:28.669Z,6.57
2023-02-20T09:57:33.205Z,6.56
2023-02-20T09:58:47.776Z,6.15
2023-02-20T09:59:55.863Z,6.74
2023-02-20T10:01:03.060Z,7.07
2023-02-20T10:02:19.162Z,6.93
2023-02-20T10:03:35.068Z,6.60
2023-02-20T10:04:58.921Z,7.08
2023-02-20T10:06:18.039Z,7.08
2023-02-20T10:07:27.841Z,6.42
2023-02-20T10:08:30.716Z,6.61
2023-02-20T10:09:32.598Z,7.26
2023-02-20T10:10:39.084Z,7.59
2023-02-20T10:12:11.778Z,7.25
2023-02-20T10:13:22.269Z,7.43
2023-02-20T10:14:51.962Z,7.18
2023-02-20T10:16:18.510Z,7.78
2023-02-20T10:17:46.696Z,7.34
2023-02-20T10:19:04.508Z,7.34
2023-02-20T10:20:29.730Z,7.32
2023-02-20T10:21:40.681Z,6.94
2023-02-20T10:22:59.080Z,7.90
2023-02-20T10:24:36.355Z,6.45
2023-02-20T10:25:45.060Z,6.93
2023-02-20T10:26:54.357Z,7.45
2023-02-20T10:28:06.095Z,7.86
2023-02-20T10:29:24.052Z,7.79
2023-02-20T10:30:38.486Z,7.82
2023-02-20T10:32:03.359Z,8.07
2023-02-20T10:33:31.693Z,7.78
2023-02-20T10:35:00.312Z,7.16
2023-02-20T10:36:15.231Z,7.94
2023-02-20T10:37:22.943Z,8.52
2023-02-20T10:38:35.860Z,7.32
2023-02-20T10:39:41.068Z,8.00
2023-02-20T10:40:57.610Z,8.04
2023-02-20T10:42:13.009Z,8.01
2023-02-20T10:43:28.892Z,7.20
2023-02-20T10:44:50.114Z,7.69
2023-02-20T10:46:09.027Z,8.02
2023-02-20T10:47:21.345Z,8.36
2023-02-20T10:48:29.694Z,8.12
2023-02-20T10:49:41.691Z,8.22
2023-02-20T10:50:43.818Z,8.04
2023-02-20T10:51:52.137Z,7.48
2023-02-20T10:53:13.057Z,7.58
2023-02-20T10:54:33.695Z,7.52
2023-02-20T10:56:09.609Z,7.04
2023-02-20T10:57:16.259Z,7.75
2023-02-20T10:58:32.894Z,7.79
2023-02-20T10:59:59.364Z,8.51
2023-02-20T11:01:07.219Z,7.33
2023-02-20T11:02:21.335Z,7.79
2023-02-20T11:03:49.202Z,8.28
2023-02-20T11:05:01.689Z,7.81
2023-02-20T11:06:07.527Z,7.57
2023-02-20T11:07:15.895Z,7.59
2023-02-20T11:08:20.991Z,8.06
2023-02-20T11:09:26.407Z,7.59
2023-02-20T11:10:28.132Z,7.39
2023-02-20T11:11:42.029Z,7.92
2023-02-20T11:12:52.183Z,8.72
2023-02-20T11:13:53.982Z,8.92
2023-02-20T11:14:58.827Z,9.33
2023-02-20T11:16:02.171Z,9.08
2023-02-20T11:17:16.281Z,8.84
2023-02-20T11:18:35.361Z,8.85
2023-02-20T11:19:40.991Z,8.41
2023-02-20T11:20:46.738Z,8.10
2023-02-20T11:21:50.932Z,9.49
2023-02-20T11:22:53.256Z,10.80
2023-02-20T11:23:56.867Z,9.25
2023-02-20T11:25:17.256Z,8.79
2023-02-20T11:26:30.963Z,11.62
2023-02-20T11:27:35.260Z,17.79
2023-02-20T11:28:38.028Z,14.15
2023-02-20T11:30:03.188Z,24.30
2023-02-20T11:31:08.623Z,13.87
2023-02-20T11:32:36.464Z,14.00
2023-02-20T11:33:48.008Z,12.02
2023-02-20T11:35:05.821Z,10.79
2023-02-20T11:36:19.137Z,14.66
2023-02-20T11:37:22.502Z,14.81
2023-02-20T11:38:33.430Z,12.46
2023-02-20T11:39:35.953Z,8.80
2023-02-20T11:40:38.070Z,14.35
2023-02-20T11:41:39.970Z,13.65
2023-02-20T11:42:42.644Z,18.63
2023-02-20T11:44:00.195Z,15.44
2023-02-20T11:45:16.568Z,17.37
2023-02-20T11:46:22.084Z,20.17
2023-02-20T11:47:28.106Z,22.84
2023-02-20T11:48:30.495Z,15.07
2023-02-20T11:49:32.404Z,25.76
2023-02-20T11:50:48.661Z,21.03
2023-02-20T11:51:50.672Z,14.25
2023-02-20T11:53:02.364Z,14.59
2023-02-20T11:54:26.082Z,23.02
2023-02-20T11:55:29.744Z,13.11
2023-02-20T11:56:31.738Z,18.61
2023-02-20T11:57:45.179Z,14.72
2023-02-20T11:58:47.525Z,15.70
2023-02-20T11:59:52.390Z,14.20
2023-02-20T12:00:55.818Z,13.69
2023-02-20T12:02:27.876Z,12.44
2023-02-20T12:03:34.559Z,12.15
2023-02-20T12:04:36.482Z,14.88
2023-02-20T12:05:42.570Z,14.55
2023-02-20T12:06:44.814Z,15.74
2023-02-20T12:07:52.572Z,13.39
2023-02-20T12:08:57.290Z,12.16
2023-02-20T12:10:10.510Z,15.85
2023-02-20T12:11:17.653Z,14.53
2023-02-20T12:12:23.681Z,12.48
2023-02-20T12:13:25.822Z,13.36
2023-02-20T12:14:27.567Z,12.64
2023-02-20T12:15:30.555Z,10.82
2023-02-20T12:17:09.333Z,10.50
2023-02-20T12:18:26.254Z,9.54
2023-02-20T12:19:49.416Z,9.71
2023-02-20T12:21:36.264Z,10.54
2023-02-20T12:22:46.696Z,13.96
2023-02-20T12:24:03.570Z,13.40
2023-02-20T12:25:17.573Z,11.79
2023-02-20T12:27:00.513Z,12.41
2023-02-20T12:28:08.490Z,12.72
2023-02-20T12:29:30.725Z,10.15
2023-02-20T12:30:56.269Z,10.57
2023-02-20T12:32:29.544Z,11.69
2023-02-20T12:33:57.023Z,10.77
2023-02-20T12:35:25.502Z,9.45
2023-02-20T12:36:36.981Z,11.15
2023-02-20T12:38:20.508Z,11.45
2023-02-20T12:39:40.733Z,11.64
2023-02-20T12:41:20.994Z,11.76
2023-02-20T12:42:50.246Z,10.30
2023-02-20T12:44:16.900Z,10.14
2023-02-20T12:45:40.049Z,10.16
2023-02-20T12:47:04.713Z,10.49
2023-02-20T12:48:39.811Z,10.60
2023-02-20T12:49:54.506Z,10.40
2023-02-20T12:51:09.565Z,9.17
2023-02-20T12:52:49.951Z,9.19
2023-02-20T12:54:07.501Z,9.73
2023-02-20T12:55:19.370Z,9.52
2023-02-20T12:56:27.270Z,9.14
2023-02-20T12:57:47.976Z,8.86
2023-02-20T12:59:13.481Z,9.22
2023-02-20T13:00:32.834Z,9.56
2023-02-20T13:01:40.121Z,10.39
2023-02-20T13:03:10.299Z,8.27
2023-02-20T13:04:49.568Z,8.98
2023-02-20T13:05:53.190Z,9.36
2023-02-20T13:07:01.388Z,8.92
2023-02-20T13:08:13.109Z,8.26
2023-02-20T13:10:03.302Z,8.03
2023-02-20T13:11:30.973Z,8.09
2023-02-20T13:12:32.760Z,8.53
2023-02-20T13:13:58.558Z,8.88
2023-02-20T13:15:28.706Z,12.81
2023-02-20T13:16:42.781Z,7.33
2023-02-20T13:17:54.697Z,7.76
2023-02-20T13:19:21.654Z,7.95
2023-02-20T13:20:33.634Z,8.44
2023-02-20T13:21:35.788Z,8.24
2023-02-20T13:22:38.304Z,8.31
2023-02-20T13:23:42.099Z,8.26
2023-02-20T13:24:44.123Z,9.44
2023-02-20T13:25:47.058Z,8.31
2023-02-20T13:26:52.926Z,9.31
2023-02-20T13:28:14.041Z,8.81
2023-02-20T13:29:26.812Z,8.49
2023-02-20T13:30:29.121Z,8.82
2023-02-20T13:31:38.842Z,8.60
2023-02-20T13:32:45.592Z,9.74
2023-02-20T13:33:49.223Z,10.53
2023-02-20T13:34:51.444Z,8.49
2023-02-20T13:35:58.110Z,9.18
2023-02-20T13:37:00.607Z,9.34
2023-02-20T13:38:18.203Z,10.15
2023-02-20T13:39:23.392Z,11.04
2023-02-20T13:40:28.461Z,12.08
2023-02-20T13:41:56.423Z,12.10
2023-02-20T13:43:13.752Z,11.61
2023-02-20T13:44:27.788Z,12.11
2023-02-20T13:45:38.530Z,12.38
2023-02-20T13:47:02.822Z,12.71
2023-02-20T13:48:30.557Z,12.49
2023-02-20T13:49:44.744Z,10.56
2023-02-20T13:50:46.926Z,10.22
2023-02-20T13:51:48.668Z,9.75
2023-02-20T13:52:56.096Z,9.59
2023-02-20T13:54:10.089Z,9.96
2023-02-20T13:55:11.818Z,11.78
2023-02-20T13:56:26.391Z,9.68
2023-02-20T13:57:34.039Z,9.65
2023-02-20T13:58:36.152Z,11.54
2023-02-20T13:59:40.083Z,10.76
2023-02-20T14:00:54.365Z,9.45
2023-02-20T14:02:24.213Z,9.63
2023-02-20T14:03:30.519Z,9.83
2023-02-20T14:04:32.979Z,9.52
2023-02-20T14:05:34.819Z,9.61
2023-02-20T14:06:58.113Z,7.69
2023-02-20T14:08:00.648Z,10.19
2023-02-20T14:09:16.478Z,10.81
2023-02-20T14:10:28.705Z,9.67
2023-02-20T14:11:34.398Z,9.18
2023-02-20T14:12:36.337Z,8.88
2023-02-20T14:13:41.662Z,8.29
2023-02-20T14:14:46.033Z,8.35
2023-02-20T14:15:56.955Z,8.81
2023-02-20T14:17:15.838Z,10.81
2023-02-20T14:18:36.605Z,9.37
2023-02-20T14:19:43.787Z,9.69
2023-02-20T14:20:46.766Z,8.88
2023-02-20T14:21:49.142Z,8.58
2023-02-20T14:23:12.889Z,9.08
2023-02-20T14:24:25.371Z,8.89
2023-02-20T14:25:29.487Z,8.90
2023-02-20T14:26:34.211Z,9.80
2023-02-20T14:27:36.341Z,10.50
2023-02-20T14:28:46.949Z,9.14
2023-02-20T14:30:07.414Z,8.10
2023-02-20T14:31:36.226Z,7.74
2023-02-20T14:32:42.130Z,7.81
2023-02-20T14:33:44.112Z,8.01
2023-02-20T14:35:07.534Z,8.82
2023-02-20T14:36:26.391Z,8.93
2023-02-20T14:38:02.082Z,12.70
2023-02-20T14:39:26.691Z,8.44
2023-02-20T14:40:43.625Z,10.29
2023-02-20T14:41:56.204Z,8.41
2023-02-20T14:43:03.730Z,9.03
2023-02-20T14:44:18.405Z,9.08
2023-02-20T14:45:26.696Z,27.16
2023-02-20T14:46:35.841Z,10.83
2023-02-20T14:47:52.001Z,8.41
2023-02-20T14:49:14.486Z,7.38
2023-02-20T14:50:25.433Z,6.82
2023-02-20T14:51:27.125Z,7.16
2023-02-20T14:52:29.913Z,6.13
2023-02-20T14:53:31.802Z,6.41
2023-02-20T14:54:33.691Z,6.22
2023-02-20T14:55:35.551Z,6.41
2023-02-20T14:56:37.374Z,5.97
2023-02-20T14:57:39.598Z,6.15
2023-02-20T14:58:42.017Z,6.30
2023-02-20T14:59:44.074Z,5.34
2023-02-20T15:00:50.554Z,5.02
2023-02-20T15:02:18.790Z,5.89
2023-02-20T15:03:31.555Z,5.24